Time;durP1;ratioP1;P1;durP2;ratioP2;P2;SDS_P1;SDS_P2;PMS_P1;PMS_P2;Temp;Humidity;BMP_temperature;BMP_pressure;BME280_temperature;BME280_humidity;BME280_pressure;Samples;Min_cycle;Max_cycle;Signal;HPM_P1;HPM_P2
2021/12/16 00:09:41;;;;;;;41.80;38.95;;;;;;;20.79;46.13;103251.44;5000112;28;20046;-92
2021/12/16 00:31:27;;;;;;;39.47;36.85;;;;;;;20.75;46.01;103244.75;4999767;28;20142;-89
2021/12/16 00:34:03;;;;;;;40.80;37.97;;;;;;;20.75;46.09;103253.00;5029022;28;20034;-83
2021/12/16 00:36:39;;;;;;;40.30;37.80;;;;;;;20.75;45.72;103253.00;4993671;28;20045;-88
2021/12/16 00:39:09;;;;;;;42.75;39.90;;;;;;;20.74;45.74;103263.16;5000818;28;20041;-88
2021/12/16 00:41:36;;;;;;;41.17;38.35;;;;;;;20.74;45.98;103263.16;4997520;28;20034;-88
2021/12/16 00:44:14;;;;;;;42.75;39.65;;;;;;;20.74;45.74;103257.66;4996567;28;20380;-88
2021/12/16 00:54:39;;;;;;;40.22;37.72;;;;;;;20.72;45.92;103265.31;5004070;28;20100;-88
2021/12/16 00:57:11;;;;;;;40.38;37.95;;;;;;;20.71;45.74;103252.69;4983293;28;20037;-88
2021/12/16 00:59:40;;;;;;;41.60;39.00;;;;;;;20.72;45.85;103261.75;5008358;28;20057;-88
2021/12/16 01:40:37;;;;;;;42.50;39.90;;;;;;;20.63;45.56;103287.94;5004691;28;20046;-88
2021/12/16 01:46:22;;;;;;;42.00;39.33;;;;;;;20.62;45.29;103281.63;5003871;28;20502;-88
2021/12/16 01:49:12;;;;;;;;;;;;;;;20.59;45.56;103275.78;4996983;28;20042;-89
2021/12/16 01:59:22;;;;;;;39.00;36.53;;;;;;;20.58;45.32;103316.16;5013746;28;20262;-91
2021/12/16 02:01:47;;;;;;;39.95;37.47;;;;;;;20.58;45.19;103302.41;5013895;28;20045;-87
2021/12/16 02:04:29;;;;;;;40.97;37.97;;;;;;;20.59;45.29;103306.00;5024225;28;20042;-90
2021/12/16 02:09:28;;;;;;;39.75;37.55;;;;;;;20.58;45.25;103304.34;5006862;28;20042;-89
2021/12/16 02:12:12;;;;;;;39.85;37.40;;;;;;;20.58;45.40;103307.91;5028332;28;20030;-88
2021/12/16 02:36:43;;;;;;;39.17;36.78;;;;;;;20.54;45.21;103312.22;4988495;28;20066;-90
2021/12/16 02:39:27;;;;;;;39.60;37.30;;;;;;;20.53;45.20;103308.63;5011413;28;20088;-90
2021/12/16 02:41:59;;;;;;;40.53;38.13;;;;;;;20.53;45.15;103313.28;5012133;28;20041;-89
2021/12/16 02:44:32;;;;;;;41.38;38.67;;;;;;;20.53;45.09;103318.78;5007684;28;20026;-89
2021/12/16 02:49:52;;;;;;;39.38;36.85;;;;;;;20.52;44.91;103312.47;4994505;28;20043;-89
2021/12/16 02:52:21;;;;;;;40.15;37.50;;;;;;;20.51;45.31;103309.94;5000364;28;20049;-89
2021/12/16 02:54:47;;;;;;;39.60;37.30;;;;;;;20.52;45.42;103317.94;5016069;28;20068;-89
2021/12/16 02:57:13;;;;;;;41.38;38.88;;;;;;;20.51;45.02;103318.19;5010653;28;20398;-88
2021/12/16 02:59:40;;;;;;;38.88;36.70;;;;;;;20.53;45.33;103318.78;5026447;28;20096;-89
2021/12/16 03:02:13;;;;;;;41.28;38.65;;;;;;;20.52;45.42;103325.38;4998107;28;20049;-84
2021/12/16 03:04:40;;;;;;;40.30;38.00;;;;;;;20.51;45.33;103319.03;5010910;28;20097;-89
2021/12/16 03:07:09;;;;;;;39.75;37.20;;;;;;;20.50;45.24;103316.53;5003379;28;20045;-85
2021/12/16 03:10:04;;;;;;;39.45;37.08;;;;;;;20.50;45.21;103317.34;5008233;28;20107;-90
2021/12/16 03:14:59;;;;;;;39.53;37.00;;;;;;;20.49;45.16;103299.22;5004625;28;20045;-88
2021/12/16 03:17:35;;;;;;;40.22;37.83;;;;;;;20.49;45.31;103310.22;5014292;28;20305;-88
2021/12/16 03:20:08;;;;;;;40.30;38.03;;;;;;;20.49;45.37;103312.97;5012964;28;20048;-89
2021/12/16 03:22:51;;;;;;;39.80;37.38;;;;;;;20.49;45.26;103323.13;4996384;28;20041;-89
2021/12/16 03:38:26;;;;;;;39.45;36.92;;;;;;;20.46;45.07;103321.69;5011560;28;20072;-90
2021/12/16 03:40:52;;;;;;;39.75;37.35;;;;;;;20.46;45.31;103329.94;4997761;28;20093;-90
2021/12/16 03:43:19;;;;;;;39.15;36.75;;;;;;;20.45;45.04;103325.50;5013493;28;20492;-89
2021/12/16 03:48:41;;;;;;;39.00;36.17;;;;;;;20.46;45.29;103334.56;5011346;28;20199;-91
2021/12/16 03:51:22;;;;;;;37.30;35.13;;;;;;;20.45;45.40;103324.69;5012853;28;20062;-90
2021/12/16 03:53:52;;;;;;;38.50;36.22;;;;;;;20.44;45.26;103329.34;5004721;28;20291;-87
2021/12/16 03:56:18;;;;;;;39.90;37.38;;;;;;;20.44;45.24;103339.50;5014096;28;20116;-89
2021/12/16 03:58:44;;;;;;;38.38;35.97;;;;;;;20.45;45.31;103341.16;5013123;28;20041;-89
2021/12/16 04:01:13;;;;;;;38.28;35.97;;;;;;;20.44;45.15;103339.50;4997531;28;20121;-84
2021/12/16 04:03:40;;;;;;;37.65;35.45;;;;;;;20.43;44.96;103338.63;5014960;28;20037;-89
2021/12/16 04:06:06;;;;;;;38.42;36.13;;;;;;;20.43;45.39;103338.63;5013696;28;20037;-89
2021/12/16 04:08:31;;;;;;;39.70;37.08;;;;;;;20.44;45.05;103339.50;5013034;28;20048;-89
2021/12/16 04:11:23;;;;;;;37.55;35.38;;;;;;;20.43;45.19;103338.63;5014466;28;20361;-89
2021/12/16 04:13:56;;;;;;;38.83;36.50;;;;;;;20.42;45.18;103336.97;5013221;28;20053;-89
2021/12/16 04:16:35;;;;;;;38.47;35.97;;;;;;;20.43;45.32;103343.31;4996431;28;20041;-90
2021/12/16 04:19:09;;;;;;;38.35;35.85;;;;;;;20.42;45.21;103352.63;5015121;28;20494;-90
2021/12/16 04:21:43;;;;;;;38.38;35.88;;;;;;;20.41;45.10;103348.19;5014007;28;20033;-89
2021/12/16 04:24:10;;;;;;;37.63;35.42;;;;;;;20.41;45.19;103349.06;5014613;28;20110;-87
2021/12/16 04:26:38;;;;;;;38.83;36.63;;;;;;;20.41;44.96;103351.81;5030834;28;20114;-87
2021/12/16 04:29:05;;;;;;;36.90;34.70;;;;;;;20.40;45.16;103354.78;5017044;28;20034;-89
2021/12/16 04:31:33;;;;;;;37.63;35.42;;;;;;;20.40;45.05;103346.53;5033166;28;20301;-88
2021/12/16 04:33:59;;;;;;;38.17;35.80;;;;;;;20.40;44.92;103338.31;5014405;28;20042;-90
2021/12/16 04:36:25;;;;;;;38.30;35.95;;;;;;;20.39;44.95;103342.97;4994341;28;20031;-89
2021/12/16 04:38:52;;;;;;;37.92;35.65;;;;;;;20.40;45.17;103343.81;5017642;28;20103;-89
2021/12/16 04:41:18;;;;;;;39.05;36.72;;;;;;;20.40;44.85;103338.31;5007282;28;20523;-89
2021/12/16 04:43:47;;;;;;;37.38;35.08;;;;;;;20.39;45.08;103342.16;4996898;28;20128;-89
2021/12/16 04:46:20;;;;;;;38.60;36.30;;;;;;;20.40;45.03;103341.06;5014764;28;20034;-90
2021/12/16 04:48:56;;;;;;;38.17;35.95;;;;;;;20.39;44.84;103336.66;5008020;28;20065;-91
2021/12/16 04:51:25;;;;;;;38.53;36.13;;;;;;;20.38;45.15;103337.72;5004214;28;20120;-89
2021/12/16 04:53:51;;;;;;;38.50;36.28;;;;;;;20.39;44.86;103350.38;4996123;28;20031;-90
2021/12/16 04:56:18;;;;;;;39.10;36.67;;;;;;;20.38;44.92;103340.47;4993346;28;20043;-89
2021/12/16 04:58:46;;;;;;;38.13;35.92;;;;;;;20.38;44.95;103335.81;5012263;28;20029;-88
2021/12/16 05:01:12;;;;;;;37.28;35.13;;;;;;;20.37;44.91;103339.63;5012728;28;20367;-87
2021/12/16 05:03:38;;;;;;;38.15;35.85;;;;;;;20.37;45.00;103345.13;5013492;28;20030;-89
2021/12/16 05:06:05;;;;;;;38.42;36.25;;;;;;;20.37;45.39;103345.13;5013754;28;20044;-89
2021/12/16 05:08:31;;;;;;;39.45;37.05;;;;;;;20.37;45.23;103347.88;4995306;28;20100;-88
2021/12/16 05:10:59;;;;;;;38.08;35.78;;;;;;;20.36;44.88;103343.47;5001805;28;20117;-88
2021/12/16 05:13:27;;;;;;;40.15;37.70;;;;;;;20.36;45.03;103353.59;4995883;28;20061;-88
2021/12/16 05:15:55;;;;;;;37.05;34.92;;;;;;;20.36;45.15;103350.84;5029151;28;20034;-89
2021/12/16 05:18:26;;;;;;;;;;;;;;;20.34;45.24;103344.78;5013262;28;20087;-88
2021/12/16 05:20:53;;;;;;;37.88;35.58;;;;;;;20.34;45.13;103350.28;5011794;28;20344;-89
2021/12/16 05:28:33;;;;;;;39.97;37.58;;;;;;;20.32;45.01;103354.09;4992739;28;20077;-89
2021/12/16 05:30:58;;;;;;;39.22;36.70;;;;;;;20.32;44.76;103353.25;4996366;28;20103;-88
2021/12/16 05:33:25;;;;;;;38.78;36.33;;;;;;;20.33;45.02;103352.19;4993622;28;20034;-89
2021/12/16 05:35:52;;;;;;;38.33;36.13;;;;;;;20.32;45.17;103359.59;4994435;28;20033;-90
2021/12/16 05:38:17;;;;;;;36.10;33.80;;;;;;;20.32;45.20;103359.59;5005649;28;20038;-86
2021/12/16 05:40:43;;;;;;;38.97;36.72;;;;;;;20.32;44.98;103347.78;4993573;28;20034;-88
2021/12/16 05:43:12;;;;;;;37.95;35.75;;;;;;;20.32;45.05;103358.75;5006077;28;20049;-89
2021/12/16 05:45:38;;;;;;;38.35;36.17;;;;;;;20.31;44.69;103359.84;4992550;28;20022;-88
2021/12/16 05:48:09;;;;;;;38.67;36.47;;;;;;;20.32;44.98;103365.06;4993870;28;20034;-89
2021/12/16 05:50:39;;;;;;;40.08;37.45;;;;;;;20.31;45.07;103368.91;4995712;28;20060;-89
2021/12/16 05:53:05;;;;;;;38.05;35.92;;;;;;;20.30;45.26;103375.47;5005815;28;20038;-90
2021/12/16 05:55:30;;;;;;;39.78;37.47;;;;;;;20.30;45.16;103367.22;5011274;28;20037;-87
2021/12/16 05:57:56;;;;;;;36.35;34.35;;;;;;;20.30;44.90;103380.94;4997015;28;20038;-86
2021/12/16 06:00:32;;;;;;;38.80;36.50;;;;;;;20.30;44.96;103389.19;4992561;28;20038;-89
2021/12/16 06:02:58;;;;;;;37.67;35.47;;;;;;;20.31;44.89;103398.28;5004414;28;20049;-89
2021/12/16 06:05:24;;;;;;;39.83;37.40;;;;;;;20.29;45.02;103390.28;4997065;28;20057;-91
2021/12/16 06:07:51;;;;;;;38.38;35.95;;;;;;;20.29;44.87;103387.53;5002143;28;20040;-90
2021/12/16 06:12:54;;;;;;;38.00;35.58;;;;;;;20.29;44.88;103400.41;5003156;28;20054;-89
2021/12/16 06:15:35;;;;;;;37.60;35.50;;;;;;;20.29;45.23;103401.25;4996167;28;20053;-85
2021/12/16 06:26:32;;;;;;;46.90;41.97;;;;;;;20.28;45.70;103396.00;4998539;28;20089;-84
2021/12/16 06:28:58;;;;;;;55.47;41.97;;;;;;;20.28;46.20;103396.00;4983308;28;20233;-86
2021/12/16 06:31:24;;;;;;;46.15;40.95;;;;;;;20.28;46.74;103396.00;5021198;28;20114;-91
2021/12/16 06:33:49;;;;;;;47.28;41.38;;;;;;;20.29;46.87;103403.16;5018970;28;20041;-94
2021/12/16 06:36:15;;;;;;;45.80;41.13;;;;;;;20.29;46.67;103405.91;5035865;28;20089;-93
2021/12/16 06:38:41;;;;;;;44.13;40.10;;;;;;;20.30;46.79;103399.34;5018555;28;20101;-88
2021/12/16 06:41:07;;;;;;;45.45;41.30;;;;;;;20.30;46.56;103405.66;4996698;28;20034;-92
2021/12/16 06:43:33;;;;;;;45.72;41.45;;;;;;;20.30;46.97;103407.56;5012226;28;20054;-92
2021/12/16 06:46:02;;;;;;;44.63;40.90;;;;;;;20.30;46.70;103410.31;4996742;28;20498;-94
2021/12/16 06:48:31;;;;;;;42.80;38.80;;;;;;;20.31;46.57;103406.50;5001913;28;20027;-93
2021/12/16 06:51:02;;;;;;;42.03;38.45;;;;;;;20.31;46.50;103417.50;5000764;28;20030;-92
2021/12/16 06:53:44;;;;;;;43.55;39.80;;;;;;;20.29;46.57;103417.72;4999808;28;20044;-90
2021/12/16 06:56:28;;;;;;;40.92;37.45;;;;;;;20.29;46.46;103414.97;5006727;28;20462;-82
2021/12/16 06:59:08;;;;;;;42.08;38.40;;;;;;;20.29;46.34;103420.47;5020798;28;20046;-93
2021/12/16 07:01:40;;;;;;;40.50;37.42;;;;;;;20.29;46.09;103417.72;5020885;28;20037;-95
2021/12/16 07:04:09;;;;;;;40.75;37.75;;;;;;;20.28;46.40;103418.78;5030277;28;20037;-94
2021/12/16 07:09:18;;;;;;;48.13;44.03;;;;;;;20.28;45.91;103429.75;5985273;23;21483;-96
2021/12/16 07:11:47;;;;;;;38.95;35.97;;;;;;;20.27;45.95;103430.03;5006066;28;20354;-94
2021/12/16 07:14:16;;;;;;;40.47;37.83;;;;;;;20.28;45.87;103431.69;5017981;28;20421;-93
2021/12/16 07:16:48;;;;;;;39.88;36.88;;;;;;;20.27;46.22;103439.09;5012311;28;20096;-92
2021/12/16 07:19:14;;;;;;;40.30;37.17;;;;;;;20.27;45.73;103439.09;5001658;28;20048;-91
2021/12/16 07:21:43;;;;;;;40.42;37.63;;;;;;;20.26;45.63;103448.41;5013670;28;20066;-87
2021/12/16 07:24:14;;;;;;;39.85;37.00;;;;;;;20.26;45.67;103453.03;5020807;28;20092;-89
2021/12/16 07:26:39;;;;;;;40.25;37.60;;;;;;;20.25;45.68;103463.19;5021358;28;20030;-86
2021/12/16 07:29:06;;;;;;;40.17;37.00;;;;;;;20.26;45.81;103453.03;5035515;28;20025;-82
2021/12/16 07:31:33;;;;;;;39.50;36.78;;;;;;;20.25;45.49;103459.63;5010545;28;20032;-96
2021/12/16 07:34:00;;;;;;;37.05;34.33;;;;;;;20.24;45.64;103461.53;5012913;28;20054;-95
2021/12/16 07:36:27;;;;;;;39.13;36.15;;;;;;;20.24;45.68;103467.03;5014849;28;20045;-86
2021/12/16 07:38:53;;;;;;;37.63;35.08;;;;;;;20.24;45.73;103463.44;5022005;28;20054;-95
2021/12/16 07:41:21;;;;;;;38.95;36.25;;;;;;;20.23;45.53;103470.81;5019738;28;20038;-91
2021/12/16 07:46:32;;;;;;;40.90;38.08;;;;;;;20.22;45.72;103493.88;5005564;28;20048;-95
2021/12/16 07:48:58;;;;;;;37.22;34.45;;;;;;;20.23;45.71;103502.94;5001134;28;20038;-94
2021/12/16 07:51:24;;;;;;;38.00;35.55;;;;;;;20.22;45.73;103499.34;5016947;28;20029;-88
2021/12/16 07:53:49;;;;;;;39.25;36.65;;;;;;;20.21;45.88;103502.31;4993950;28;20066;-95
2021/12/16 07:56:15;;;;;;;38.35;35.75;;;;;;;20.20;45.79;103506.16;5032290;28;20073;-96
2021/12/16 07:58:40;;;;;;;38.50;35.90;;;;;;;20.21;45.71;103507.81;5014811;28;20116;-94
2021/12/16 08:01:06;;;;;;;38.28;35.97;;;;;;;20.21;45.98;103510.56;5027354;28;20037;-96
2021/12/16 08:03:35;;;;;;;39.70;37.20;;;;;;;20.20;46.10;103504.25;5004465;28;20035;-96
2021/12/16 08:06:05;;;;;;;38.00;35.50;;;;;;;20.20;46.04;103515.22;4999636;28;20539;-96
2021/12/16 08:08:32;;;;;;;39.67;37.03;;;;;;;20.19;46.28;103518.22;5000563;28;20030;-85
2021/12/16 08:10:58;;;;;;;39.58;37.10;;;;;;;20.19;46.13;103521.78;5015368;28;20093;-96
2021/12/16 08:13:24;;;;;;;40.03;37.17;;;;;;;20.19;46.60;103520.97;5046894;28;20038;-96
2021/12/16 08:15:50;;;;;;;40.33;37.60;;;;;;;20.20;46.58;103525.38;5009862;28;20061;-95
2021/12/16 08:18:15;;;;;;;40.15;37.67;;;;;;;20.19;46.81;103523.72;5011927;28;20050;-93
2021/12/16 08:20:41;;;;;;;41.75;38.75;;;;;;;20.18;47.04;103531.09;4994410;28;20144;-93
2021/12/16 08:23:07;;;;;;;39.90;37.33;;;;;;;20.18;46.99;103535.75;5025623;28;20130;-93
2021/12/16 08:25:33;;;;;;;40.47;37.80;;;;;;;20.18;47.08;103541.25;5011661;28;20065;-87
2021/12/16 08:28:03;;;;;;;40.88;38.22;;;;;;;20.19;47.20;103541.00;4993179;28;20390;-94
2021/12/16 08:30:32;;;;;;;40.17;37.70;;;;;;;20.20;47.20;103552.81;4992661;28;20030;-87
2021/12/16 08:32:59;;;;;;;41.67;38.78;;;;;;;20.20;47.55;103555.56;5026142;28;20034;-93
2021/12/16 08:35:26;;;;;;;40.22;37.40;;;;;;;20.20;47.31;103564.63;4998877;28;20034;-92
2021/12/16 08:37:51;;;;;;;40.95;38.25;;;;;;;20.22;47.44;103575.38;5015709;28;20033;-89
2021/12/16 08:40:20;;;;;;;38.65;36.15;;;;;;;20.22;46.94;103570.72;5040214;28;20042;-94
2021/12/16 08:42:46;;;;;;;41.72;38.90;;;;;;;20.22;47.46;103562.47;4991915;28;20053;-94
2021/12/16 08:45:15;;;;;;;40.63;38.03;;;;;;;20.23;47.51;103577.03;5000544;28;20038;-88
2021/12/16 08:47:41;;;;;;;41.75;38.92;;;;;;;20.22;47.35;103573.47;5024248;28;20113;-94
2021/12/16 08:50:08;;;;;;;40.38;37.45;;;;;;;20.24;47.41;103575.97;5011543;28;20562;-94
2021/12/16 08:52:34;;;;;;;40.33;37.50;;;;;;;20.23;47.58;103568.81;5002635;28;20034;-92
2021/12/16 08:55:00;;;;;;;39.92;37.28;;;;;;;20.24;47.66;103575.97;5004372;28;20038;-92
2021/12/16 08:57:27;;;;;;;40.28;37.47;;;;;;;20.25;47.40;103577.63;4994801;28;20034;-95
2021/12/16 08:59:52;;;;;;;39.83;37.20;;;;;;;20.25;47.36;103572.97;5009837;28;20289;-96
2021/12/16 09:02:19;;;;;;;40.30;37.70;;;;;;;20.25;47.48;103583.94;5018142;28;20445;-95
2021/12/16 09:04:45;;;;;;;42.40;39.28;;;;;;;20.26;47.27;103591.13;4994142;28;20903;-96
2021/12/16 09:07:12;;;;;;;40.45;37.75;;;;;;;20.26;47.62;103602.13;5025755;28;20038;-92
2021/12/16 09:09:38;;;;;;;40.88;37.85;;;;;;;20.26;47.14;103596.63;4999903;28;20058;-92
2021/12/16 09:12:15;;;;;;;39.35;36.85;;;;;;;20.26;47.45;103599.38;5019942;28;20038;-96
2021/12/16 09:14:43;;;;;;;42.70;39.88;;;;;;;20.27;47.11;103595.53;5041521;28;20045;-93
2021/12/16 09:17:12;;;;;;;39.25;36.65;;;;;;;20.27;46.99;103591.97;5010300;28;20030;-92
2021/12/16 09:19:45;;;;;;;40.45;37.88;;;;;;;20.27;46.92;103592.78;5009033;28;20037;-85
2021/12/16 09:22:10;;;;;;;39.35;36.78;;;;;;;20.27;47.33;103595.53;5015072;28;20038;-88
2021/12/16 09:24:37;;;;;;;40.88;37.88;;;;;;;20.29;47.16;103589.81;5038210;28;20149;-89
2021/12/16 09:27:03;;;;;;;38.15;35.65;;;;;;;20.29;47.13;103593.41;4992715;28;20038;-92
2021/12/16 09:29:29;;;;;;;38.03;35.70;;;;;;;20.30;47.27;103596.97;5009169;28;20092;-90
2021/12/16 09:31:55;;;;;;;37.80;35.58;;;;;;;20.30;47.10;103594.22;5003090;28;20113;-88
2021/12/16 09:34:20;;;;;;;37.63;35.40;;;;;;;20.29;47.23;103587.91;4994149;28;20033;-90
2021/12/16 09:36:46;;;;;;;39.83;37.25;;;;;;;20.31;47.59;103595.91;5024318;28;20045;-90
2021/12/16 09:39:16;;;;;;;37.95;35.53;;;;;;;20.32;47.37;103601.13;4990887;28;20085;-89
2021/12/16 09:41:46;;;;;;;38.70;35.80;;;;;;;20.33;47.54;103596.47;5008455;28;20032;-93
2021/12/16 09:44:12;;;;;;;37.92;35.40;;;;;;;20.33;47.47;103591.00;5010222;28;20044;-88
2021/12/16 09:46:39;;;;;;;36.72;34.08;;;;;;;20.33;47.37;103612.94;5024940;28;20129;-91
2021/12/16 09:49:05;;;;;;;37.45;34.95;;;;;;;20.34;47.49;103600.09;5009696;28;20125;-95
2021/12/16 09:51:36;;;;;;;36.60;34.30;;;;;;;20.35;47.30;103594.34;4992914;28;20030;-85
2021/12/16 09:54:06;;;;;;;38.08;35.63;;;;;;;20.35;47.18;103608.06;5008287;28;20044;-90
2021/12/16 09:56:33;;;;;;;40.47;38.03;;;;;;;20.35;47.44;103610.81;5009947;28;20036;-84
2021/12/16 09:59:00;;;;;;;35.63;33.58;;;;;;;20.36;47.30;103618.00;5008143;28;20026;-91
2021/12/16 10:01:26;;;;;;;37.60;35.10;;;;;;;20.36;47.43;103604.25;4992186;28;20030;-92
2021/12/16 10:03:56;;;;;;;38.38;36.15;;;;;;;20.36;47.20;103604.25;5017210;28;20045;-89
2021/12/16 10:06:21;;;;;;;37.83;35.72;;;;;;;20.38;47.20;103614.97;5043988;28;20147;-89
2021/12/16 10:08:47;;;;;;;38.80;36.50;;;;;;;20.38;47.17;103613.06;5041771;28;20120;-92
2021/12/16 10:11:15;;;;;;;37.70;35.50;;;;;;;20.38;47.17;103613.06;5026370;28;20050;-89
2021/12/16 10:14:16;;;;;;;38.55;36.20;;;;;;;20.39;47.09;103611.19;5010611;28;20038;-89
2021/12/16 10:19:14;;;;;;;36.97;34.78;;;;;;;20.38;47.19;103613.06;5020132;28;20465;-90
2021/12/16 10:21:42;;;;;;;38.78;36.58;;;;;;;20.40;47.04;103613.66;5020470;28;20122;-87
2021/12/16 10:24:30;;;;;;;37.33;35.13;;;;;;;20.39;46.76;103617.50;5013248;28;20060;-87
2021/12/16 10:27:11;;;;;;;36.08;34.03;;;;;;;20.40;46.72;103615.59;5056028;28;20038;-86
2021/12/16 10:29:42;;;;;;;37.28;34.85;;;;;;;20.39;46.69;103611.19;5014821;28;20026;-89
2021/12/16 10:32:30;;;;;;;36.40;34.30;;;;;;;20.40;46.87;103626.56;5011217;28;20089;-90
2021/12/16 10:35:00;;;;;;;37.13;34.92;;;;;;;20.40;46.54;103621.09;5006040;28;20617;-91
2021/12/16 10:37:32;;;;;;;37.65;35.40;;;;;;;20.41;46.83;103626.34;5008848;28;20033;-89
2021/12/16 10:40:34;;;;;;;36.10;34.08;;;;;;;20.40;46.73;103623.81;5025552;28;20505;-92
2021/12/16 10:43:29;;;;;;;37.28;35.08;;;;;;;20.40;46.74;103619.16;5025234;28;20040;-90
2021/12/16 10:46:08;;;;;;;34.58;32.38;;;;;;;20.40;46.69;103607.34;5002386;28;20045;-89
2021/12/16 10:48:38;;;;;;;34.97;32.88;;;;;;;20.40;46.46;103616.41;5001868;28;20040;-87
2021/12/16 10:51:23;;;;;;;36.70;34.33;;;;;;;20.40;46.38;103616.41;5009193;28;20034;-91
2021/12/16 10:54:03;;;;;;;37.58;35.38;;;;;;;20.40;46.59;103619.16;5005393;28;20038;-91
2021/12/16 10:56:37;;;;;;;36.65;34.53;;;;;;;20.40;46.52;103619.16;5023422;28;20034;-91
2021/12/16 10:59:02;;;;;;;36.67;34.78;;;;;;;20.40;46.52;103610.09;5000966;28;20035;-93
2021/12/16 11:01:51;;;;;;;37.95;35.75;;;;;;;20.41;46.48;103614.50;5012278;28;20061;-92
2021/12/16 11:04:19;;;;;;;35.83;33.85;;;;;;;20.41;46.24;103620.00;5007454;28;20103;-92
2021/12/16 11:06:53;;;;;;;37.30;35.13;;;;;;;20.41;46.15;103609.88;5009474;28;20085;-90
2021/12/16 11:09:41;;;;;;;36.15;34.10;;;;;;;20.42;46.40;103613.44;5014088;28;20030;-92
2021/12/16 11:12:13;;;;;;;35.20;33.15;;;;;;;20.42;46.60;103616.19;5028773;28;20038;-92
2021/12/16 11:14:41;;;;;;;37.45;35.33;;;;;;;20.40;46.35;103616.41;5007882;28;20030;-91
2021/12/16 11:17:09;;;;;;;36.13;34.03;;;;;;;20.41;46.42;103615.34;4998595;28;20072;-91
2021/12/16 11:20:05;;;;;;;36.13;34.15;;;;;;;20.41;46.15;103611.75;5012943;28;20087;-92
2021/12/16 11:22:38;;;;;;;36.95;34.85;;;;;;;20.41;46.22;103631.84;5006894;28;20077;-92
2021/12/16 11:25:20;;;;;;;36.65;34.45;;;;;;;20.41;46.46;103618.09;5006256;28;20121;-90
2021/12/16 11:27:52;;;;;;;37.38;35.17;;;;;;;20.41;45.98;103615.34;5016596;28;20038;-92
2021/12/16 11:30:38;;;;;;;36.75;34.65;;;;;;;20.42;46.17;103624.44;5014777;28;20374;-91
2021/12/16 11:33:32;;;;;;;37.30;35.13;;;;;;;20.42;46.41;103618.94;5005884;28;20462;-92
2021/12/16 11:36:11;;;;;;;36.95;35.05;;;;;;;20.41;46.13;103628.22;5008569;28;20030;-92
2021/12/16 11:38:44;;;;;;;37.47;35.28;;;;;;;20.42;46.14;103616.19;5008636;28;20557;-85
2021/12/16 11:41:14;;;;;;;36.65;34.65;;;;;;;20.41;46.26;103614.50;5012794;28;20030;-89
2021/12/16 11:43:42;;;;;;;38.90;36.40;;;;;;;20.41;46.11;103617.25;5027027;28;20030;-91
2021/12/16 11:46:33;;;;;;;36.05;33.97;;;;;;;20.41;46.12;103614.50;5012743;28;20037;-89
2021/12/16 11:49:06;;;;;;;36.20;34.10;;;;;;;20.40;46.33;103613.66;5037927;28;20446;-91
2021/12/16 11:51:44;;;;;;;36.13;33.92;;;;;;;20.41;45.95;103609.00;4996087;28;20117;-86
2021/12/16 11:54:24;;;;;;;34.83;32.92;;;;;;;20.41;46.11;103604.38;5007318;28;20026;-91
2021/12/16 11:57:17;;;;;;;37.08;34.97;;;;;;;20.40;46.35;103602.69;5008044;28;20061;-86
2021/12/16 11:59:55;;;;;;;38.53;36.42;;;;;;;20.40;46.05;103607.34;5008481;28;20034;-87
2021/12/16 12:02:26;;;;;;;35.45;33.45;;;;;;;20.40;46.23;103610.09;5022722;28;20034;-88
2021/12/16 12:04:53;;;;;;;35.78;33.67;;;;;;;20.40;46.09;103608.19;5007486;28;20039;-87
2021/12/16 12:07:19;;;;;;;37.60;35.42;;;;;;;20.40;46.37;103605.44;5011709;28;20041;-89
2021/12/16 12:09:48;;;;;;;35.50;33.60;;;;;;;20.40;46.24;103602.69;5012238;28;20092;-81
2021/12/16 12:12:14;;;;;;;37.13;35.13;;;;;;;20.41;46.09;103611.75;5012460;28;20057;-92
2021/12/16 12:14:43;;;;;;;35.83;33.85;;;;;;;20.41;46.15;103606.25;5039616;28;20069;-91
2021/12/16 12:17:18;;;;;;;35.03;33.15;;;;;;;20.40;46.32;103605.44;5005378;28;20034;-89
2021/12/16 12:19:48;;;;;;;37.03;34.97;;;;;;;20.40;46.27;103605.44;5003578;28;20048;-91
2021/12/16 12:22:14;;;;;;;35.85;33.75;;;;;;;20.40;46.27;103605.44;5010644;28;20375;-93
2021/12/16 12:24:46;;;;;;;36.55;34.58;;;;;;;20.41;46.21;103598.03;5013500;28;20036;-84
2021/12/16 12:27:16;;;;;;;36.50;34.50;;;;;;;20.41;46.09;103606.25;5014164;28;20026;-92
2021/12/16 12:29:50;;;;;;;36.97;34.95;;;;;;;20.41;46.20;103611.75;5013853;28;20090;-91
2021/12/16 12:32:20;;;;;;;36.47;34.58;;;;;;;20.41;46.08;103606.25;5013419;28;20092;-93
2021/12/16 12:34:52;;;;;;;36.88;34.88;;;;;;;20.41;46.28;103607.13;5005787;28;20041;-92
2021/12/16 12:37:20;;;;;;;36.53;34.53;;;;;;;20.40;46.27;103605.44;5024771;28;20042;-91
2021/12/16 12:39:51;;;;;;;35.92;33.95;;;;;;;20.41;46.54;103603.53;4997403;28;20486;-92
2021/12/16 12:42:17;;;;;;;35.75;33.78;;;;;;;20.40;46.29;103599.94;5007977;28;20507;-92
2021/12/16 12:44:43;;;;;;;35.45;33.55;;;;;;;20.41;46.08;103604.38;4996719;28;20141;-91
2021/12/16 12:47:16;;;;;;;36.40;34.35;;;;;;;20.42;46.38;103605.22;5008568;28;20089;-92
2021/12/16 12:49:42;;;;;;;35.47;33.38;;;;;;;20.41;46.44;103606.25;4994871;28;20081;-85
2021/12/16 12:52:18;;;;;;;35.30;33.50;;;;;;;20.41;46.27;103604.38;5012968;28;20033;-92
2021/12/16 12:54:57;;;;;;;35.05;33.10;;;;;;;20.42;46.44;103607.94;5013575;28;20470;-91
2021/12/16 12:57:28;;;;;;;34.75;32.78;;;;;;;20.41;46.20;103606.25;5003818;28;20038;-90
2021/12/16 12:59:55;;;;;;;35.88;33.88;;;;;;;20.41;46.24;103603.53;4996238;28;20037;-92
2021/12/16 13:02:32;;;;;;;35.83;33.72;;;;;;;20.40;46.48;103597.19;4996304;28;20036;-92
2021/12/16 13:05:07;;;;;;;34.92;33.03;;;;;;;20.41;46.31;103589.78;5035612;28;20438;-90
2021/12/16 13:07:43;;;;;;;34.67;32.78;;;;;;;20.41;46.38;103587.91;5008788;28;20038;-91
2021/12/16 13:10:13;;;;;;;35.00;33.15;;;;;;;20.41;46.28;103589.78;5010220;28;20097;-91
2021/12/16 13:12:56;;;;;;;34.40;32.22;;;;;;;20.41;46.04;103585.16;5001208;28;20030;-90
2021/12/16 13:26:45;;;;;;;35.55;33.53;;;;;;;20.40;45.93;103590.88;5025387;28;20025;-91
2021/12/16 13:29:38;;;;;;;34.83;32.88;;;;;;;20.39;46.13;103590.06;5005386;28;20379;-92
2021/12/16 13:32:15;;;;;;;34.10;32.28;;;;;;;20.40;46.39;103593.63;5003107;28;20676;-92
2021/12/16 13:34:59;;;;;;;35.05;33.25;;;;;;;20.40;46.34;103593.63;4994879;28;20037;-91
2021/12/16 13:37:34;;;;;;;35.47;33.58;;;;;;;20.39;45.96;103591.97;5007371;28;20040;-91
2021/12/16 13:40:20;;;;;;;35.28;33.40;;;;;;;20.40;46.19;103596.38;4998267;28;20069;-91
2021/12/16 13:42:54;;;;;;;33.88;31.88;;;;;;;20.40;45.69;103593.63;4994051;28;20048;-90
2021/12/16 13:45:41;;;;;;;34.00;32.20;;;;;;;20.39;46.10;103587.31;5006395;28;20038;-91
2021/12/16 13:48:54;;;;;;;34.08;32.22;;;;;;;20.38;45.67;103588.38;5006598;28;20041;-90
2021/12/16 14:03:18;;;;;;;33.05;31.33;;;;;;;20.37;45.83;103596.84;5009866;28;20100;-91
2021/12/16 14:08:44;;;;;;;35.22;33.25;;;;;;;20.37;46.00;103600.44;5012055;28;20073;-92
2021/12/16 14:23:21;;;;;;;34.58;32.67;;;;;;;20.35;45.85;103608.06;4993596;28;20056;-91
2021/12/16 14:26:15;;;;;;;;;;;;;;;20.33;45.58;103604.72;5005688;28;20060;-85
2021/12/16 14:47:54;;;;;;;34.45;32.55;;;;;;;20.35;45.69;103623.69;5009769;28;20046;-90
2021/12/16 14:50:03;;;;;;;34.63;32.83;;;;;;;20.35;45.60;103618.22;4993563;28;20125;-90
2021/12/16 14:52:31;;;;;;;34.33;32.42;;;;;;;20.35;45.60;103624.53;5006816;28;20033;-90
2021/12/16 14:55:03;;;;;;;;;;;;;;;20.33;45.79;103623.94;4996589;28;20045;-91
2021/12/16 14:57:36;;;;;;;33.72;32.00;;;;;;;20.34;46.03;103631.13;5027079;28;19913;-90
2021/12/16 15:00:21;;;;;;;35.40;33.50;;;;;;;20.35;45.88;103631.94;5043379;28;20116;-91